TimeEDT,TemperatureF,Dew PointF,Humidity,Sea Level PressureIn,VisibilityMPH,Wind Direction,Wind SpeedMPH,Gust SpeedMPH,PrecipitationIn,Events,Conditions,WindDirDegrees,DateUTC
12:53 AM,78.1,73.9,87,30.05,10.0,Calm,Calm,-,N/A,,Partly Cloudy,0,2013-05-12 04:53:00
1:53 AM,77.0,73.9,90,30.04,10.0,Calm,Calm,-,N/A,,Scattered Clouds,0,2013-05-12 05:53:00
2:53 AM,75.0,73.0,94,30.02,9.0,Calm,Calm,-,N/A,,Partly Cloudy,0,2013-05-12 06:53:00
3:50 AM,75.2,73.4,94,29.98,7.0,SSE,5.8,-,N/A,,Partly Cloudy,150,2013-05-12 07:50:00
3:53 AM,75.0,73.0,94,29.99,7.0,SSE,5.8,-,N/A,,Partly Cloudy,150,2013-05-12 07:53:00
4:53 AM,75.0,73.0,94,29.95,8.0,SSE,5.8,-,N/A,,Clear,160,2013-05-12 08:53:00
5:05 AM,75.2,73.4,94,29.93,8.0,SE,5.8,-,N/A,,Partly Cloudy,140,2013-05-12 09:05:00
5:26 AM,73.4,71.6,94,29.96,7.0,Calm,Calm,-,N/A,,Mostly Cloudy,0,2013-05-12 09:26:00
5:50 AM,73.4,71.6,94,29.98,9.0,Calm,Calm,-,N/A,,Partly Cloudy,0,2013-05-12 09:50:00
5:53 AM,73.9,73.0,97,29.99,10.0,Calm,Calm,-,N/A,,Scattered Clouds,0,2013-05-12 09:53:00
6:53 AM,73.9,72.0,93,30.01,7.0,Calm,Calm,-,N/A,,Clear,0,2013-05-12 10:53:00
7:53 AM,73.9,73.0,97,30.02,4.0,SSE,3.5,-,N/A,,Mostly Cloudy,150,2013-05-12 11:53:00
7:58 AM,73.4,73.4,100,30.02,1.8,SSE,3.5,-,N/A,,Mostly Cloudy,150,2013-05-12 11:58:00
8:15 AM,73.4,73.4,100,30.02,2.5,Calm,Calm,-,N/A,,Overcast,0,2013-05-12 12:15:00
8:22 AM,75.2,73.4,94,30.02,3.0,SE,3.5,-,N/A,,Overcast,130,2013-05-12 12:22:00
8:53 AM,77.0,73.9,90,30.04,9.0,Calm,Calm,-,N/A,,Mostly Cloudy,0,2013-05-12 12:53:00
9:06 AM,78.8,73.4,83,30.03,10.0,Calm,Calm,-,N/A,,Partly Cloudy,0,2013-05-12 13:06:00
9:53 AM,82.9,73.0,72,30.04,10.0,SW,4.6,-,N/A,,Scattered Clouds,220,2013-05-12 13:53:00
10:39 AM,84.2,73.4,70,30.03,10.0,Variable,6.9,-,N/A,,Mostly Cloudy,0,2013-05-12 14:39:00
10:53 AM,84.0,73.0,69,30.04,10.0,SW,9.2,-,N/A,,Mostly Cloudy,230,2013-05-12 14:53:00
11:21 AM,86.0,71.6,62,30.03,10.0,SW,10.4,-,N/A,,Scattered Clouds,220,2013-05-12 15:21:00
11:53 AM,86.0,71.1,61,30.04,10.0,WSW,15.0,19.6,N/A,,Scattered Clouds,240,2013-05-12 15:53:00
12:53 PM,86.0,72.0,63,30.02,10.0,West,13.8,-,N/A,,Scattered Clouds,260,2013-05-12 16:53:00
1:53 PM,87.1,72.0,61,30.01,10.0,WSW,15.0,-,N/A,,Partly Cloudy,250,2013-05-12 17:53:00
2:53 PM,87.1,71.1,59,30.01,10.0,WSW,15.0,21.9,N/A,,Partly Cloudy,240,2013-05-12 18:53:00
3:53 PM,86.0,71.1,61,30.00,10.0,WSW,12.7,-,N/A,,Scattered Clouds,250,2013-05-12 19:53:00
4:53 PM,86.0,70.0,59,29.99,10.0,West,15.0,-,N/A,,Clear,280,2013-05-12 20:53:00
5:23 PM,86.0,71.6,62,29.98,10.0,WSW,16.1,-,N/A,,Mostly Cloudy,250,2013-05-12 21:23:00
5:44 PM,84.2,69.8,62,29.99,10.0,West,13.8,18.4,N/A,,Scattered Clouds,280,2013-05-12 21:44:00
5:53 PM,84.0,70.0,63,29.99,10.0,West,15.0,-,N/A,,Partly Cloudy,280,2013-05-12 21:53:00
6:53 PM,82.0,69.1,65,30.00,10.0,WNW,10.4,-,N/A,,Clear,290,2013-05-12 22:53:00
7:53 PM,81.0,68.0,65,30.02,10.0,WNW,6.9,-,N/A,,Clear,300,2013-05-12 23:53:00
8:53 PM,80.1,70.0,71,30.04,10.0,WNW,6.9,-,N/A,,Clear,300,2013-05-13 00:53:00
9:53 PM,79.0,71.1,77,30.05,10.0,WNW,8.1,-,N/A,,Clear,290,2013-05-13 01:53:00
10:53 PM,79.0,72.0,79,30.06,10.0,NW,4.6,-,N/A,,Clear,310,2013-05-13 02:53:00
11:53 PM,78.1,72.0,81,30.05,10.0,WNW,4.6,-,N/A,,Clear,300,2013-05-13 03:53:00